createdAt,value
2022-09-28T00:01:17.530Z,10.47
2022-09-28T00:03:49.144Z,10.35
2022-09-28T00:06:18.669Z,10.33
2022-09-28T00:08:46.048Z,10.26
2022-09-28T00:11:15.564Z,10.29
2022-09-28T00:13:44.018Z,10.24
2022-09-28T00:16:14.138Z,10.19
2022-09-28T00:18:41.711Z,10.15
2022-09-28T00:21:14.951Z,10.13
2022-09-28T00:24:01.477Z,10.15
2022-09-28T00:26:30.119Z,10.06
2022-09-28T00:29:01.982Z,10.10
2022-09-28T00:31:32.789Z,10.12
2022-09-28T00:34:05.315Z,10.01
2022-09-28T00:36:34.011Z,9.98
2022-09-28T00:39:07.503Z,9.96
2022-09-28T00:41:34.910Z,9.87
2022-09-28T00:44:26.274Z,9.97
2022-09-28T00:47:21.149Z,10.00
2022-09-28T00:49:56.712Z,9.86
2022-09-28T00:52:41.835Z,9.99
2022-09-28T00:55:13.585Z,10.03
2022-09-28T00:57:44.570Z,10.00
2022-09-28T01:00:12.096Z,10.18
2022-09-28T01:02:39.021Z,10.24
2022-09-28T01:05:10.299Z,10.29
2022-09-28T01:07:38.483Z,10.23
2022-09-28T01:10:06.039Z,10.18
2022-09-28T01:12:33.039Z,10.27
2022-09-28T01:15:01.924Z,10.28
2022-09-28T01:17:31.787Z,10.33
2022-09-28T01:20:23.322Z,10.28
2022-09-28T01:23:31.626Z,10.19
2022-09-28T01:26:17.392Z,10.15
2022-09-28T01:28:47.266Z,10.13
2022-09-28T01:31:16.072Z,10.15
2022-09-28T01:33:54.730Z,10.11
2022-09-28T01:36:30.326Z,10.09
2022-09-28T01:39:05.431Z,10.13
2022-09-28T01:41:36.587Z,10.11
2022-09-28T01:44:08.744Z,10.11
2022-09-28T01:46:42.185Z,10.09
2022-09-28T01:49:15.078Z,10.10
2022-09-28T01:51:44.728Z,10.09
2022-09-28T01:54:15.060Z,10.00
2022-09-28T01:56:51.418Z,9.97
2022-09-28T01:59:24.754Z,10.00
2022-09-28T02:02:22.179Z,10.09
2022-09-28T02:04:55.487Z,10.03
2022-09-28T02:07:31.306Z,10.03
2022-09-28T02:10:07.056Z,10.11
2022-09-28T02:12:44.501Z,10.05
2022-09-28T02:15:19.197Z,10.18
2022-09-28T02:17:46.408Z,10.14
2022-09-28T02:20:14.167Z,10.18
2022-09-28T02:22:53.552Z,10.17
2022-09-28T02:25:31.443Z,10.11
2022-09-28T02:28:04.801Z,10.17
2022-09-28T02:30:35.423Z,10.23
2022-09-28T02:33:10.805Z,10.20
2022-09-28T02:35:38.707Z,10.27
2022-09-28T02:38:05.651Z,10.24
2022-09-28T02:40:34.977Z,10.21
2022-09-28T02:43:24.272Z,10.27
2022-09-28T02:46:39.352Z,10.38
2022-09-28T02:49:23.631Z,10.34
2022-09-28T02:52:11.691Z,10.37
2022-09-28T02:54:51.000Z,10.40
2022-09-28T02:57:43.637Z,10.48
2022-09-28T03:00:31.738Z,10.32
2022-09-28T03:03:13.020Z,10.29
2022-09-28T03:06:05.249Z,10.28
2022-09-28T03:09:20.422Z,10.29
2022-09-28T03:11:53.834Z,10.35
2022-09-28T03:14:20.814Z,10.37
2022-09-28T03:16:47.663Z,10.35
2022-09-28T03:19:17.350Z,10.34
2022-09-28T03:21:44.177Z,10.28
2022-09-28T03:24:11.224Z,10.30
2022-09-28T03:26:39.240Z,10.29
2022-09-28T03:29:06.090Z,10.28
2022-09-28T03:31:33.052Z,10.23
2022-09-28T03:33:59.988Z,10.18
2022-09-28T03:36:26.845Z,10.24
2022-09-28T03:38:56.133Z,10.22
2022-09-28T03:41:27.797Z,10.17
2022-09-28T03:43:54.932Z,10.16
2022-09-28T03:46:21.888Z,10.19
2022-09-28T03:48:48.938Z,10.20
2022-09-28T03:51:15.744Z,10.18
2022-09-28T03:53:42.483Z,10.15
2022-09-28T03:56:14.563Z,10.14
2022-09-28T03:58:41.624Z,10.15
2022-09-28T04:01:16.545Z,10.40
2022-09-28T04:03:44.381Z,10.25
2022-09-28T04:06:11.230Z,10.20
2022-09-28T04:08:38.101Z,10.22
2022-09-28T04:11:05.356Z,10.18
2022-09-28T04:13:32.316Z,10.13
2022-09-28T04:16:01.309Z,10.29
2022-09-28T04:18:28.745Z,10.20
